Terminal Aerodrome Forecast
Issued by NWS

Home | Current Version | Previous Version | Text Only | Print | Product List | Glossary On
Versions: 1 2 3 4 5 6 7 8 9 10 11 12 13 14 15 16
000
FTUS41 KPHI 012100 AAA
TAFPNE
TAF AMD
KPNE 012123Z 0121/0218 VRB05KT P6SM SCT030 BKN050 OVC100
      TEMPO 0121/0123 6SM -SHRA BKN035
     FM020000 16006KT P6SM OVC050
     FM020600 08005KT 5SM -SHRA BR OVC050
     FM021300 05009KT 5SM -SHRA BR OVC020=

USA.gov is the U.S. government's official web portal to all federal, state and local government web resources and services.